createdAt,value
2023-10-27T00:03:18.557Z,98720.19
2023-10-27T00:08:20.136Z,98723.06
2023-10-27T00:13:22.099Z,98725.41
2023-10-27T00:18:23.931Z,98707.47
2023-10-27T00:23:25.667Z,98716.34
2023-10-27T00:28:27.199Z,98713.78
2023-10-27T00:33:28.901Z,98707.91
2023-10-27T00:38:31.296Z,98704.63
2023-10-27T00:43:32.769Z,98708.63
2023-10-27T00:48:35.604Z,98706.31
2023-10-27T00:53:38.666Z,98696.41
2023-10-27T00:58:40.406Z,98704.91
2023-10-27T01:03:42.915Z,98706.78
2023-10-27T01:08:44.759Z,98700.53
2023-10-27T01:13:51.190Z,98700.72
2023-10-27T01:18:52.995Z,98703.28
2023-10-27T01:23:54.557Z,98697.03
2023-10-27T01:28:56.171Z,98694.09
2023-10-27T01:33:57.749Z,98680.41
2023-10-27T01:38:59.344Z,98681.38
2023-10-27T01:44:02.158Z,98681.03
2023-10-27T01:49:04.424Z,98678.88
2023-10-27T01:54:06.110Z,98679.13
2023-10-27T01:59:07.567Z,98670.13
2023-10-27T02:04:09.101Z,98673.84
2023-10-27T02:09:10.658Z,98664.28
2023-10-27T02:14:12.163Z,98661.06
2023-10-27T02:19:14.509Z,98656.81
2023-10-27T02:24:17.329Z,98656.00
2023-10-27T02:29:21.764Z,98647.22
2023-10-27T02:34:23.465Z,98638.38
2023-10-27T02:39:24.994Z,98643.25
2023-10-27T02:44:26.614Z,98638.69
2023-10-27T02:49:28.092Z,98623.63
2023-10-27T02:54:29.679Z,98624.94
2023-10-27T02:59:31.138Z,98620.69
2023-10-27T03:04:32.706Z,98610.66
2023-10-27T03:09:34.234Z,98604.59
2023-10-27T03:14:35.710Z,98604.69
2023-10-27T03:19:37.260Z,98596.84
2023-10-27T03:24:38.833Z,98607.25
2023-10-27T03:29:40.571Z,98602.31
2023-10-27T03:34:42.137Z,98604.69
2023-10-27T03:39:44.688Z,98596.81
2023-10-27T03:44:46.304Z,98587.00
2023-10-27T03:49:47.883Z,98590.84
2023-10-27T03:54:49.412Z,98586.91
2023-10-27T03:59:50.933Z,98583.91
2023-10-27T04:04:52.494Z,98585.94
2023-10-27T04:09:54.538Z,98572.09
2023-10-27T04:14:56.036Z,98576.03
2023-10-27T04:19:57.502Z,98575.34
2023-10-27T04:24:59.050Z,98574.63
2023-10-27T04:30:00.617Z,98570.16
2023-10-27T04:35:02.115Z,98571.66
2023-10-27T04:40:03.996Z,98565.19
2023-10-27T04:45:05.961Z,98573.78
2023-10-27T04:50:09.963Z,98570.38
2023-10-27T04:55:13.371Z,98573.16
2023-10-27T05:00:15.433Z,98567.66
2023-10-27T05:05:19.688Z,98565.91
2023-10-27T05:10:21.188Z,98569.34
2023-10-27T05:15:22.837Z,98561.66
2023-10-27T05:20:24.312Z,98561.22
2023-10-27T05:25:26.453Z,98558.69
2023-10-27T05:30:28.300Z,98558.56
2023-10-27T05:35:30.262Z,98559.84
2023-10-27T05:40:33.257Z,98559.31
2023-10-27T05:45:35.061Z,98553.13
2023-10-27T05:50:36.527Z,98554.72
2023-10-27T05:55:38.066Z,98551.44
2023-10-27T06:00:39.603Z,98549.06
2023-10-27T06:05:41.353Z,98550.56
2023-10-27T06:10:42.845Z,98544.31
2023-10-27T06:15:45.776Z,98551.13
2023-10-27T06:20:47.467Z,98545.25
2023-10-27T06:25:49.037Z,98555.69
2023-10-27T06:30:50.539Z,98546.44
2023-10-27T06:35:52.058Z,98547.06
2023-10-27T06:40:53.574Z,98551.16
2023-10-27T06:45:55.125Z,98555.50
2023-10-27T06:50:56.610Z,98557.53
2023-10-27T06:55:58.099Z,98553.56
2023-10-27T07:01:06.934Z,98554.31
2023-10-27T07:06:08.504Z,98554.03
2023-10-27T07:11:11.024Z,98561.03
2023-10-27T07:16:12.532Z,98564.03
2023-10-27T07:21:14.144Z,98565.53
2023-10-27T07:26:16.884Z,98568.22
2023-10-27T07:31:18.475Z,98573.44
2023-10-27T07:36:20.646Z,98569.16
2023-10-27T07:41:22.173Z,98563.19
2023-10-27T07:46:23.711Z,98574.94
2023-10-27T07:51:25.270Z,98574.50
2023-10-27T07:56:26.833Z,98585.81
2023-10-27T08:01:28.438Z,98587.63
2023-10-27T08:06:30.660Z,98600.75
2023-10-27T08:11:33.313Z,98602.44
2023-10-27T08:16:34.834Z,98606.72
2023-10-27T08:21:36.400Z,98602.44
2023-10-27T08:26:37.915Z,98621.94
2023-10-27T08:31:39.503Z,98624.22
2023-10-27T08:36:41.014Z,98626.44
2023-10-27T08:41:42.794Z,98632.31
2023-10-27T08:46:45.087Z,98639.13
2023-10-27T08:51:47.196Z,98637.97
2023-10-27T08:56:48.785Z,98641.38
2023-10-27T09:01:50.333Z,98648.09
2023-10-27T09:06:52.027Z,98638.72
2023-10-27T09:11:53.985Z,98627.63
2023-10-27T09:17:10.009Z,98635.28
2023-10-27T09:22:17.053Z,98647.78
2023-10-27T09:27:27.062Z,98650.66
2023-10-27T09:32:28.779Z,98651.50
2023-10-27T09:37:33.548Z,98655.56
2023-10-27T09:42:36.615Z,98666.03
2023-10-27T09:47:47.194Z,98668.38
2023-10-27T09:52:50.892Z,98666.88
2023-10-27T09:57:52.784Z,98674.56
2023-10-27T10:02:56.643Z,98678.63
2023-10-27T10:08:01.303Z,98680.44
2023-10-27T10:13:07.147Z,98688.00
2023-10-27T10:18:30.098Z,98696.97
2023-10-27T10:23:45.689Z,98716.56
2023-10-27T10:28:47.941Z,98720.56
2023-10-27T10:33:50.507Z,98716.81
2023-10-27T10:38:56.373Z,98705.06
2023-10-27T10:44:15.193Z,98702.31
2023-10-27T10:49:24.728Z,98717.56
2023-10-27T10:54:29.206Z,98712.56
2023-10-27T10:59:31.181Z,98724.19
2023-10-27T11:09:39.145Z,98722.69
2023-10-27T11:14:42.041Z,98706.28
2023-10-27T11:19:55.915Z,98702.41
2023-10-27T11:24:57.602Z,98711.81
2023-10-27T11:30:03.118Z,98706.66
2023-10-27T11:35:04.863Z,98707.56
2023-10-27T11:40:14.778Z,98705.06
2023-10-27T11:45:16.626Z,98709.22
2023-10-27T11:50:18.254Z,98719.59
2023-10-27T11:55:20.487Z,98705.28
2023-10-27T12:00:22.331Z,98709.44
2023-10-27T12:05:24.269Z,98703.81
2023-10-27T12:10:25.848Z,98713.69
2023-10-27T12:15:27.338Z,98709.97
2023-10-27T12:20:28.862Z,98701.53
2023-10-27T12:25:31.524Z,98711.63
2023-10-27T12:30:34.238Z,98704.56
2023-10-27T12:35:36.110Z,98708.19
2023-10-27T12:40:37.968Z,98715.06
2023-10-27T12:45:39.926Z,98721.28
2023-10-27T12:50:42.382Z,98724.97
2023-10-27T12:55:44.136Z,98723.31
2023-10-27T13:00:45.824Z,98729.53
2023-10-27T13:05:47.984Z,98726.53
2023-10-27T13:10:49.735Z,98733.13
2023-10-27T13:15:51.975Z,98744.91
2023-10-27T13:20:53.499Z,98747.06
2023-10-27T13:26:02.871Z,98748.13
2023-10-27T13:31:04.771Z,98767.84
2023-10-27T13:36:10.411Z,98769.56
2023-10-27T13:41:16.739Z,98764.44
2023-10-27T13:46:18.327Z,98768.50
2023-10-27T13:51:20.007Z,98774.41
2023-10-27T13:56:21.677Z,98764.66
2023-10-27T14:01:24.669Z,98768.09
2023-10-27T14:06:26.298Z,98761.16
2023-10-27T14:11:27.977Z,98771.94
2023-10-27T14:16:29.818Z,98774.72
2023-10-27T14:21:33.814Z,98774.81
2023-10-27T14:26:38.205Z,98785.16
2023-10-27T14:31:40.364Z,98784.72
2023-10-27T14:36:41.882Z,98782.47
2023-10-27T14:41:43.419Z,98783.41
2023-10-27T14:46:47.053Z,98792.59
2023-10-27T14:51:48.635Z,98781.78
2023-10-27T14:56:50.100Z,98804.50
2023-10-27T15:01:51.578Z,98801.72
2023-10-27T15:06:53.057Z,98813.19
2023-10-27T15:11:54.547Z,98827.63
2023-10-27T15:16:56.283Z,98824.00
2023-10-27T15:21:57.958Z,98836.41
2023-10-27T15:26:59.484Z,98838.78
2023-10-27T15:32:01.072Z,98841.47
2023-10-27T15:37:02.756Z,98839.09
2023-10-27T15:42:04.606Z,98840.50
2023-10-27T15:47:06.161Z,98837.28
2023-10-27T15:52:08.220Z,98839.22
2023-10-27T15:57:09.739Z,98833.25
2023-10-27T16:02:11.548Z,98838.38
2023-10-27T16:07:14.187Z,98846.28
2023-10-27T16:12:16.735Z,98846.28
2023-10-27T16:17:18.794Z,98850.56
2023-10-27T16:22:20.340Z,98848.63
2023-10-27T16:27:21.828Z,98855.06
2023-10-27T16:32:23.388Z,98856.75
2023-10-27T16:37:25.100Z,98864.84
2023-10-27T16:42:27.023Z,98866.13
2023-10-27T16:47:28.668Z,98869.09
2023-10-27T16:52:30.170Z,98874.25
2023-10-27T16:57:35.347Z,98870.06
2023-10-27T17:02:37.049Z,98885.94
2023-10-27T17:07:41.801Z,98888.06
2023-10-27T17:12:43.812Z,98896.91
2023-10-27T17:17:45.451Z,98893.59
2023-10-27T17:22:47.416Z,98896.56
2023-10-27T17:27:48.983Z,98889.31
2023-10-27T17:32:51.582Z,98896.09
2023-10-27T17:37:53.278Z,98895.00
2023-10-27T17:42:55.204Z,98898.97
2023-10-27T17:47:56.782Z,98910.91
2023-10-27T17:52:58.482Z,98912.66
2023-10-27T17:58:00.230Z,98915.81
2023-10-27T18:03:01.728Z,98918.78
2023-10-27T18:08:04.586Z,98917.38
2023-10-27T18:13:06.748Z,98916.13
2023-10-27T18:18:11.570Z,98910.88
2023-10-27T18:23:14.476Z,98922.69
2023-10-27T18:28:16.085Z,98928.63
2023-10-27T18:33:18.433Z,98935.09
2023-10-27T18:38:19.987Z,98939.28
2023-10-27T18:43:21.598Z,98933.19
2023-10-27T18:48:23.136Z,98931.66
2023-10-27T18:53:24.631Z,98930.31
2023-10-27T18:58:26.176Z,98932.06
2023-10-27T19:03:30.719Z,98929.22
2023-10-27T19:08:32.524Z,98934.34
2023-10-27T19:13:35.585Z,98938.34
2023-10-27T19:18:38.810Z,98949.00
2023-10-27T19:23:47.037Z,98946.16
2023-10-27T19:28:50.367Z,98950.53
2023-10-27T19:33:52.835Z,98946.72
2023-10-27T19:38:55.844Z,98947.31
2023-10-27T19:43:57.491Z,98948.97
2023-10-27T19:49:00.547Z,98955.66
2023-10-27T19:54:02.023Z,98966.97
2023-10-27T19:59:04.108Z,98970.59
2023-10-27T20:04:07.832Z,98981.69
2023-10-27T20:09:12.835Z,98976.19
2023-10-27T20:14:14.339Z,98973.69
2023-10-27T20:19:15.800Z,98976.00
2023-10-27T20:24:17.761Z,98976.50
2023-10-27T20:29:23.059Z,98978.19
2023-10-27T20:34:25.882Z,98987.59
2023-10-27T20:39:29.170Z,98996.53
2023-10-27T20:44:30.636Z,98999.03
2023-10-27T20:49:32.744Z,98995.41
2023-10-27T20:54:34.278Z,99000.53
2023-10-27T20:59:35.785Z,99000.41
2023-10-27T21:04:37.321Z,99012.28
2023-10-27T21:09:40.719Z,99009.44
2023-10-27T21:14:42.503Z,99010.75
2023-10-27T21:19:44.083Z,99005.63
2023-10-27T21:24:45.658Z,99000.78
2023-10-27T21:29:50.028Z,99004.41
2023-10-27T21:34:51.577Z,98995.84
2023-10-27T21:39:53.312Z,98997.91
2023-10-27T21:44:54.959Z,98995.25
2023-10-27T21:49:56.531Z,99005.56
2023-10-27T21:54:58.278Z,99010.50
2023-10-27T21:59:59.800Z,99009.13
2023-10-27T22:05:03.250Z,99015.13
2023-10-27T22:10:06.222Z,99014.47
2023-10-27T22:15:09.925Z,99016.19
2023-10-27T22:20:12.737Z,99019.66
2023-10-27T22:25:14.222Z,99019.78
2023-10-27T22:30:15.802Z,99020.78
2023-10-27T22:35:18.404Z,99026.28
2023-10-27T22:40:20.028Z,99033.97
2023-10-27T22:45:21.702Z,99030.09
2023-10-27T22:50:26.622Z,99039.47
2023-10-27T22:55:28.150Z,99045.81
2023-10-27T23:00:29.626Z,99047.44
2023-10-27T23:05:33.386Z,99046.25
2023-10-27T23:10:35.167Z,99052.16
2023-10-27T23:15:37.778Z,99056.53
2023-10-27T23:20:39.704Z,99055.56
2023-10-27T23:25:42.098Z,99062.47
2023-10-27T23:30:48.639Z,99066.56
2023-10-27T23:35:56.941Z,99060.41
2023-10-27T23:41:05.132Z,99062.47
2023-10-27T23:46:07.916Z,99057.47
2023-10-27T23:51:09.435Z,99063.50
2023-10-27T23:56:12.614Z,99058.06
